Time;durP1;ratioP1;P1;durP2;ratioP2;P2;SDS_P1;SDS_P2;PMS_P1;PMS_P2;Temp;Humidity;BMP_temperature;BMP_pressure;BME280_temperature;BME280_humidity;BME280_pressure;Samples;Min_cycle;Max_cycle;Signal;HPM_P1;HPM_P2
2023/05/14 00:02:48;;;;;;;12.00;8.15;;;11.90;99.90;;;;;;6240350;28;20124;-82
2023/05/14 00:05:51;;;;;;;9.32;7.78;;;11.80;99.90;;;;;;6237137;28;20046;-81
2023/05/14 00:08:53;;;;;;;11.70;9.23;;;11.80;99.90;;;;;;6238729;28;20057;-82
2023/05/14 00:11:55;;;;;;;9.20;8.30;;;11.80;99.90;;;;;;6243181;28;20060;-82
2023/05/14 00:14:56;;;;;;;11.27;7.18;;;11.80;99.90;;;;;;6244395;28;20046;-81
2023/05/14 00:17:58;;;;;;;8.73;7.95;;;11.80;99.90;;;;;;6244865;28;20052;-81
2023/05/14 00:21:01;;;;;;;8.75;7.82;;;11.90;99.90;;;;;;6243112;28;20050;-81
2023/05/14 00:24:03;;;;;;;8.98;8.05;;;11.90;99.90;;;;;;6239332;28;20050;-81
2023/05/14 00:27:05;;;;;;;8.77;7.82;;;11.90;99.90;;;;;;6226294;28;20551;-81
2023/05/14 00:30:07;;;;;;;8.43;7.60;;;11.90;99.90;;;;;;6228946;28;20504;-81
2023/05/14 00:33:09;;;;;;;9.88;8.88;;;11.90;99.90;;;;;;6241889;28;20053;-81
2023/05/14 00:36:12;;;;;;;9.93;8.60;;;12.00;99.90;;;;;;6247780;28;20053;-81
2023/05/14 00:39:14;;;;;;;8.88;8.07;;;12.00;99.90;;;;;;6245510;28;20042;-81
2023/05/14 00:42:16;;;;;;;7.45;6.20;;;12.00;99.90;;;;;;6245259;28;20048;-81
2023/05/14 00:45:18;;;;;;;8.25;7.20;;;12.00;99.90;;;;;;6241262;28;20056;-82
2023/05/14 00:48:20;;;;;;;7.53;6.88;;;12.00;99.90;;;;;;6243343;28;20140;-82
2023/05/14 00:51:24;;;;;;;10.50;8.75;;;12.10;99.90;;;;;;6244107;28;20052;-81
2023/05/14 00:54:26;;;;;;;12.60;7.70;;;12.10;99.90;;;;;;6242731;28;20042;-81
2023/05/14 00:57:28;;;;;;;19.20;7.60;;;12.10;99.90;;;;;;6242958;28;20045;-80
2023/05/14 01:00:30;;;;;;;8.38;7.72;;;12.10;99.90;;;;;;6241335;28;20049;-81
2023/05/14 01:03:32;;;;;;;12.75;7.90;;;12.10;99.90;;;;;;6241275;28;20042;-80
2023/05/14 01:06:45;;;;;;;8.00;7.20;;;12.00;99.90;;;;;;6240971;28;20069;-81
2023/05/14 01:09:51;;;;;;;9.65;8.68;;;12.10;99.90;;;;;;6241727;28;20042;-81
2023/05/14 01:13:02;;;;;;;8.63;7.82;;;12.10;99.90;;;;;;6241927;28;20053;-81
2023/05/14 01:16:04;;;;;;;9.48;7.85;;;12.20;99.90;;;;;;6240719;28;20042;-81
2023/05/14 01:19:16;;;;;;;9.65;7.90;;;12.20;99.90;;;;;;6239813;28;20089;-81
2023/05/14 01:22:19;;;;;;;10.10;8.30;;;12.20;99.90;;;;;;6239429;28;20054;-81
2023/05/14 01:25:20;;;;;;;9.80;8.90;;;12.20;99.90;;;;;;6240550;28;20049;-81
2023/05/14 01:28:27;;;;;;;8.55;7.70;;;12.20;99.90;;;;;;6257308;23;20053;-80
2023/05/14 01:31:31;;;;;;;9.15;8.25;;;12.10;99.90;;;;;;6210374;28;20050;-81
2023/05/14 01:34:35;;;;;;;9.75;7.93;;;12.20;99.90;;;;;;6201019;28;20616;-79
2023/05/14 01:37:39;;;;;;;10.20;9.18;;;12.20;99.90;;;;;;6204720;28;20053;-79
2023/05/14 01:40:42;;;;;;;10.10;9.05;;;12.20;99.90;;;;;;6227610;28;20052;-81
2023/05/14 01:43:45;;;;;;;9.90;9.00;;;12.30;99.90;;;;;;6227279;28;20046;-81
2023/05/14 01:46:46;;;;;;;9.07;8.05;;;12.20;99.90;;;;;;6226889;28;20524;-79
2023/05/14 01:49:48;;;;;;;8.80;7.88;;;12.20;99.90;;;;;;6226259;28;20050;-80
2023/05/14 01:52:52;;;;;;;13.13;8.85;;;12.20;99.90;;;;;;6226468;28;20050;-80
2023/05/14 01:55:53;;;;;;;9.55;8.52;;;12.20;99.90;;;;;;6225335;28;20049;-78
2023/05/14 01:58:55;;;;;;;9.55;8.60;;;12.30;99.90;;;;;;6226336;28;20046;-79
2023/05/14 02:01:57;;;;;;;9.98;8.35;;;12.30;99.90;;;;;;6225972;28;20045;-81
2023/05/14 02:04:59;;;;;;;9.88;8.15;;;12.30;99.90;;;;;;6230313;28;20057;-80
2023/05/14 02:08:02;;;;;;;9.40;8.60;;;12.20;99.90;;;;;;6237438;28;20057;-81
2023/05/14 02:11:04;;;;;;;10.48;9.43;;;12.20;99.90;;;;;;6229293;28;20042;-81
2023/05/14 02:14:06;;;;;;;10.27;9.27;;;12.20;99.90;;;;;;6227367;28;20046;-81
2023/05/14 02:17:07;;;;;;;11.63;8.52;;;12.20;99.90;;;;;;6228037;28;20061;-81
2023/05/14 02:20:10;;;;;;;10.63;9.63;;;12.00;99.90;;;;;;6235590;28;20049;-81
2023/05/14 02:23:13;;;;;;;10.18;8.88;;;12.00;99.90;;;;;;6227549;28;20053;-75
2023/05/14 02:26:15;;;;;;;12.57;11.35;;;11.90;99.90;;;;;;6212752;28;20046;-79
2023/05/14 02:29:16;;;;;;;16.15;9.63;;;11.80;99.90;;;;;;6177996;28;20062;-81
2023/05/14 02:32:18;;;;;;;9.65;7.82;;;11.70;99.90;;;;;;6177886;28;20043;-81
2023/05/14 02:35:20;;;;;;;10.70;9.30;;;11.60;99.90;;;;;;6177587;28;20046;-81
2023/05/14 02:38:23;;;;;;;9.98;8.82;;;11.50;99.90;;;;;;6177763;28;20066;-80
2023/05/14 02:41:25;;;;;;;10.02;9.02;;;11.40;99.90;;;;;;6177044;28;20386;-81
2023/05/14 02:44:26;;;;;;;9.65;8.65;;;11.40;99.90;;;;;;6177465;28;20062;-81
2023/05/14 02:47:28;;;;;;;10.98;9.88;;;11.40;99.90;;;;;;6176456;28;20046;-81
2023/05/14 02:50:30;;;;;;;10.52;9.25;;;11.40;99.90;;;;;;6180086;28;20049;-81
2023/05/14 02:53:33;;;;;;;10.55;8.50;;;11.40;99.90;;;;;;6176312;28;20055;-80
2023/05/14 02:56:35;;;;;;;12.50;8.88;;;11.40;99.90;;;;;;6177141;28;20058;-81
2023/05/14 02:59:36;;;;;;;10.70;9.60;;;11.40;99.90;;;;;;6176937;28;20053;-78
2023/05/14 03:02:38;;;;;;;9.93;9.02;;;11.50;99.90;;;;;;6176585;28;20046;-81
2023/05/14 03:05:40;;;;;;;11.25;10.18;;;11.50;99.90;;;;;;6176644;28;20059;-80
2023/05/14 03:08:43;;;;;;;11.10;10.02;;;11.60;99.90;;;;;;6176513;28;20055;-81
2023/05/14 03:11:44;;;;;;;12.15;10.90;;;11.60;99.90;;;;;;6176212;28;20046;-81
2023/05/14 03:14:46;;;;;;;11.82;10.15;;;11.70;99.90;;;;;;6175948;28;20054;-80
2023/05/14 03:17:48;;;;;;;10.32;9.30;;;11.70;99.90;;;;;;6176726;28;20050;-80
2023/05/14 03:20:49;;;;;;;10.27;9.18;;;11.80;99.90;;;;;;6177426;28;20043;-80
2023/05/14 03:23:53;;;;;;;10.93;8.93;;;11.80;99.90;;;;;;6175985;28;20050;-81
2023/05/14 03:26:55;;;;;;;10.18;9.18;;;11.80;99.90;;;;;;6180343;28;20046;-76
2023/05/14 03:29:57;;;;;;;10.10;9.20;;;11.80;99.90;;;;;;6179990;28;20058;-80
2023/05/14 03:32:58;;;;;;;9.40;8.50;;;11.90;99.90;;;;;;6177898;28;20054;-82
2023/05/14 03:36:00;;;;;;;11.45;9.32;;;11.90;99.90;;;;;;6176864;28;20417;-80
2023/05/14 03:39:05;;;;;;;9.75;8.85;;;11.90;99.90;;;;;;6176220;28;20047;-81
2023/05/14 03:42:07;;;;;;;9.68;8.80;;;12.00;99.90;;;;;;6176586;28;20058;-81
2023/05/14 03:45:10;;;;;;;9.50;8.57;;;12.00;99.90;;;;;;6179986;28;20047;-80
2023/05/14 03:48:11;;;;;;;9.68;8.15;;;12.00;99.90;;;;;;6180114;28;20505;-81
2023/05/14 03:51:13;;;;;;;11.00;9.82;;;12.00;99.90;;;;;;6180411;28;20378;-81
2023/05/14 03:54:16;;;;;;;10.45;9.05;;;12.00;99.90;;;;;;6180116;28;20501;-80
2023/05/14 03:57:18;;;;;;;11.23;10.05;;;12.00;99.90;;;;;;6181200;28;20501;-81
2023/05/14 04:00:20;;;;;;;8.77;7.97;;;11.90;99.90;;;;;;6180131;28;20049;-80
2023/05/14 04:03:21;;;;;;;7.85;7.05;;;11.90;99.90;;;;;;6180130;28;20496;-81
2023/05/14 04:06:23;;;;;;;10.30;9.20;;;11.80;99.90;;;;;;6180054;28;20062;-80
2023/05/14 04:09:26;;;;;;;10.88;9.77;;;11.80;99.90;;;;;;6179577;28;20055;-81
2023/05/14 04:12:28;;;;;;;10.02;9.02;;;11.70;99.90;;;;;;6178232;28;20465;-79
2023/05/14 04:15:29;;;;;;;9.05;8.15;;;11.70;99.90;;;;;;6167602;28;20061;-81
2023/05/14 04:18:34;;;;;;;9.75;8.90;;;11.70;99.90;;;;;;6174145;28;20508;-81
2023/05/14 04:21:35;;;;;;;8.32;7.53;;;11.70;99.90;;;;;;6171855;28;20386;-78
2023/05/14 04:24:38;;;;;;;9.15;7.75;;;11.70;99.90;;;;;;6171441;28;20508;-80
2023/05/14 04:27:40;;;;;;;9.48;7.75;;;11.70;99.90;;;;;;6192976;28;20046;-79
2023/05/14 04:30:42;;;;;;;7.78;7.00;;;11.70;99.90;;;;;;6199451;28;20572;-81
2023/05/14 04:33:43;;;;;;;8.43;7.65;;;11.70;99.90;;;;;;6198341;28;20054;-80
2023/05/14 04:36:45;;;;;;;10.93;6.97;;;11.70;99.90;;;;;;6207107;28;20043;-81
2023/05/14 04:39:48;;;;;;;9.18;8.27;;;11.70;99.90;;;;;;6196510;28;20050;-81
2023/05/14 04:42:50;;;;;;;8.50;7.60;;;11.70;99.90;;;;;;6179817;28;20054;-80
2023/05/14 04:45:52;;;;;;;8.40;7.60;;;11.70;99.90;;;;;;6171670;28;20051;-80
2023/05/14 04:48:53;;;;;;;9.35;7.72;;;11.70;99.90;;;;;;6173221;28;20136;-79
2023/05/14 04:51:55;;;;;;;9.90;7.47;;;11.70;99.90;;;;;;6172353;28;20055;-80
2023/05/14 04:54:58;;;;;;;9.18;7.95;;;11.80;99.90;;;;;;6170237;28;20441;-81
2023/05/14 04:58:00;;;;;;;9.00;7.70;;;11.80;99.90;;;;;;6167544;28;20521;-81
2023/05/14 05:01:02;;;;;;;9.80;8.80;;;11.80;99.90;;;;;;6177359;28;20429;-77
2023/05/14 05:04:04;;;;;;;11.75;9.40;;;11.80;99.90;;;;;;6170385;28;20051;-80
2023/05/14 05:07:06;;;;;;;8.38;7.55;;;11.90;99.90;;;;;;6185228;28;20054;-79
2023/05/14 05:10:09;;;;;;;8.13;7.32;;;12.00;99.90;;;;;;6189733;28;20092;-81
2023/05/14 05:13:11;;;;;;;9.10;7.68;;;12.10;99.90;;;;;;6174991;28;20055;-81
2023/05/14 05:16:13;;;;;;;7.20;6.22;;;12.20;99.90;;;;;;6163018;28;20072;-79
2023/05/14 05:19:14;;;;;;;7.95;7.15;;;12.40;99.90;;;;;;6168644;28;20177;-76
2023/05/14 05:22:16;;;;;;;8.38;7.57;;;12.50;99.90;;;;;;6182634;28;20039;-79
2023/05/14 05:25:20;;;;;;;8.43;7.03;;;12.70;99.90;;;;;;6183341;28;20055;-79
2023/05/14 05:28:21;;;;;;;8.27;7.47;;;12.90;99.90;;;;;;6177383;28;20039;-80
2023/05/14 05:31:23;;;;;;;8.07;7.32;;;13.10;99.90;;;;;;6185507;28;20154;-80
2023/05/14 05:34:25;;;;;;;7.75;6.45;;;13.10;99.90;;;;;;6191050;28;20098;-78
2023/05/14 05:37:27;;;;;;;6.95;6.35;;;13.30;99.90;;;;;;6175011;28;20485;-81
2023/05/14 05:40:30;;;;;;;6.88;6.28;;;13.50;99.90;;;;;;6169356;28;20055;-76
2023/05/14 05:43:32;;;;;;;8.20;6.95;;;13.70;99.90;;;;;;6176075;28;20692;-82
2023/05/14 05:46:34;;;;;;;10.30;6.30;;;13.90;99.90;;;;;;6168929;28;20050;-81
2023/05/14 05:49:36;;;;;;;7.53;6.10;;;14.10;99.90;;;;;;6167844;28;20055;-82
2023/05/14 05:52:39;;;;;;;8.18;6.68;;;14.20;99.90;;;;;;6165977;28;20039;-81
2023/05/14 05:55:42;;;;;;;6.95;5.90;;;14.40;99.90;;;;;;6167477;28;20054;-81
2023/05/14 05:58:44;;;;;;;6.20;5.65;;;14.60;99.90;;;;;;6182667;28;20416;-80
2023/05/14 06:01:46;;;;;;;7.25;6.57;;;14.90;99.90;;;;;;6199373;28;20047;-80
2023/05/14 06:04:48;;;;;;;8.15;6.57;;;15.10;99.90;;;;;;6175068;28;20571;-78
2023/05/14 06:07:50;;;;;;;6.38;5.78;;;15.30;99.90;;;;;;6196388;28;20057;-81
2023/05/14 06:10:53;;;;;;;8.10;6.03;;;15.40;99.90;;;;;;6188943;28;20061;-78
2023/05/14 06:13:55;;;;;;;7.07;6.45;;;15.60;99.90;;;;;;6168097;28;20058;-81
2023/05/14 06:16:57;;;;;;;8.32;5.88;;;15.80;99.90;;;;;;6173522;28;20066;-82
2023/05/14 06:19:59;;;;;;;6.90;6.30;;;15.80;99.90;;;;;;6176065;28;20061;-80
2023/05/14 06:23:00;;;;;;;6.03;5.50;;;16.20;99.90;;;;;;6189003;28;20057;-81
2023/05/14 06:26:03;;;;;;;7.45;5.95;;;16.40;99.90;;;;;;6196684;28;20049;-81
2023/05/14 06:29:05;;;;;;;7.93;5.90;;;16.50;99.90;;;;;;6200281;28;20045;-81
2023/05/14 06:32:08;;;;;;;7.30;5.97;;;16.60;99.90;;;;;;6203115;28;20041;-80
2023/05/14 06:35:09;;;;;;;6.10;5.50;;;16.60;99.90;;;;;;6187026;28;20057;-78
2023/05/14 06:38:11;;;;;;;7.90;5.93;;;16.70;99.90;;;;;;6174511;28;20042;-81
2023/05/14 06:41:14;;;;;;;5.95;4.90;;;16.80;99.90;;;;;;6176767;28;20501;-81
2023/05/14 06:44:16;;;;;;;6.47;5.72;;;17.00;99.90;;;;;;6174997;28;20390;-77
2023/05/14 06:47:18;;;;;;;5.40;4.90;;;17.20;99.90;;;;;;6175029;28;20442;-82
2023/05/14 06:50:19;;;;;;;5.45;4.95;;;17.80;99.90;;;;;;6179858;28;21331;-81
2023/05/14 06:53:21;;;;;;;5.43;4.93;;;19.20;99.90;;;;;;6171678;28;20054;-83
2023/05/14 06:56:24;;;;;;;5.85;5.00;;;20.70;99.90;;;;;;6167701;28;20050;-83
2023/05/14 06:59:26;;;;;;;5.40;4.90;;;21.70;99.90;;;;;;6189866;28;20050;-82
2023/05/14 07:02:27;;;;;;;4.75;4.30;;;22.80;98.00;;;;;;6196665;28;20046;-83
2023/05/14 07:05:29;;;;;;;5.07;4.22;;;23.70;96.00;;;;;;6196483;28;20058;-79
2023/05/14 07:08:31;;;;;;;6.47;5.60;;;24.50;93.50;;;;;;6171247;28;20055;-82
2023/05/14 07:11:34;;;;;;;5.35;4.85;;;24.70;91.40;;;;;;6169994;28;20043;-82
2023/05/14 07:14:36;;;;;;;6.22;5.05;;;25.20;89.80;;;;;;6169223;28;20169;-81
2023/05/14 07:17:38;;;;;;;7.47;5.03;;;25.70;87.30;;;;;;6170514;28;20160;-83
2023/05/14 07:20:39;;;;;;;5.18;4.78;;;25.90;83.80;;;;;;6166512;28;20063;-82
2023/05/14 07:23:41;;;;;;;8.63;6.15;;;26.20;80.60;;;;;;6167150;28;20058;-83
2023/05/14 07:26:44;;;;;;;5.60;5.18;;;26.10;78.10;;;;;;6169025;28;20050;-81
2023/05/14 07:29:46;;;;;;;5.63;4.90;;;26.20;76.10;;;;;;6173026;28;20046;-83
2023/05/14 07:32:48;;;;;;;5.40;4.28;;;26.20;75.50;;;;;;6196331;28;20053;-82
2023/05/14 07:35:50;;;;;;;5.75;5.30;;;26.40;74.40;;;;;;6171549;28;20055;-78
2023/05/14 07:38:51;;;;;;;5.40;4.65;;;26.90;72.70;;;;;;6169376;28;20058;-82
2023/05/14 07:41:54;;;;;;;4.60;3.80;;;27.20;71.60;;;;;;6167805;28;20440;-83
2023/05/14 07:44:56;;;;;;;4.72;4.00;;;27.60;69.50;;;;;;6171735;28;20417;-81
2023/05/14 07:47:58;;;;;;;6.00;4.30;;;27.60;67.00;;;;;;6201427;28;20095;-81
2023/05/14 07:51:00;;;;;;;4.18;3.78;;;27.20;66.70;;;;;;6205580;28;20039;-81
2023/05/14 07:54:01;;;;;;;5.50;4.72;;;27.30;66.50;;;;;;6201661;28;20062;-81
2023/05/14 07:57:05;;;;;;;5.22;4.72;;;27.50;65.00;;;;;;6185033;28;20042;-81
2023/05/14 08:00:08;;;;;;;4.80;4.13;;;27.30;64.50;;;;;;6195501;28;20042;-81
2023/05/14 08:03:09;;;;;;;5.43;4.55;;;27.30;64.00;;;;;;6180176;28;20494;-81
2023/05/14 08:06:11;;;;;;;4.15;3.75;;;27.30;63.30;;;;;;6163907;28;20062;-79
2023/05/14 08:09:13;;;;;;;4.75;4.25;;;27.40;62.80;;;;;;6166637;28;20051;-81
2023/05/14 08:12:16;;;;;;;8.27;5.57;;;27.50;62.00;;;;;;6165167;28;20043;-80
2023/05/14 08:15:18;;;;;;;4.45;4.05;;;27.70;61.30;;;;;;6165808;28;20070;-81
2023/05/14 08:18:20;;;;;;;4.72;4.28;;;28.00;61.00;;;;;;6163644;28;20046;-82
2023/05/14 08:21:21;;;;;;;4.15;3.75;;;28.30;60.30;;;;;;6163072;28;20047;-82
2023/05/14 08:24:23;;;;;;;4.63;3.70;;;28.40;59.60;;;;;;6189190;28;20057;-81
2023/05/14 08:27:28;;;;;;;4.45;4.13;;;28.60;59.00;;;;;;6177645;28;20046;-82
2023/05/14 08:30:29;;;;;;;4.85;4.38;;;28.50;57.30;;;;;;6182363;28;20049;-81
2023/05/14 08:33:31;;;;;;;4.80;4.20;;;28.20;57.40;;;;;;6202354;28;20523;-80
2023/05/14 08:36:33;;;;;;;5.13;4.28;;;28.20;56.90;;;;;;6205459;28;20053;-81
2023/05/14 08:39:34;;;;;;;5.47;4.57;;;27.90;56.60;;;;;;6206503;28;20048;-81
2023/05/14 08:42:40;;;;;;;3.97;3.67;;;27.30;56.40;;;;;;6190279;28;20036;-82
2023/05/14 08:45:42;;;;;;;4.32;3.88;;;27.20;57.60;;;;;;6171465;28;20411;-82
2023/05/14 08:48:51;;;;;;;3.55;3.25;;;27.60;57.50;;;;;;6188379;28;20054;-82
2023/05/14 08:51:53;;;;;;;4.40;3.97;;;27.80;56.70;;;;;;6188532;28;20430;-81
2023/05/14 08:54:56;;;;;;;5.35;4.85;;;28.00;56.80;;;;;;6174093;28;20047;-81
2023/05/14 08:58:00;;;;;;;5.18;3.42;;;28.30;55.80;;;;;;6179482;28;20496;-81
2023/05/14 09:01:01;;;;;;;3.17;2.80;;;28.40;54.70;;;;;;6200754;28;20132;-82
2023/05/14 09:04:07;;;;;;;4.20;3.53;;;28.30;55.10;;;;;;6198538;28;20971;-82
2023/05/14 09:07:08;;;;;;;4.15;3.75;;;28.50;54.40;;;;;;6204816;28;20047;-83
2023/05/14 09:10:11;;;;;;;3.83;3.45;;;28.40;53.30;;;;;;6205150;28;20042;-83
2023/05/14 09:13:14;;;;;;;3.47;3.17;;;28.10;53.70;;;;;;6201574;28;20509;-81
2023/05/14 09:16:18;;;;;;;4.15;3.75;;;27.60;54.40;;;;;;6201724;28;20038;-81
2023/05/14 09:19:21;;;;;;;4.50;4.20;;;27.80;54.50;;;;;;6201554;28;20041;-82
2023/05/14 09:22:22;;;;;;;5.57;3.75;;;27.80;53.70;;;;;;6199885;28;20039;-81
2023/05/14 09:25:27;;;;;;;3.72;3.25;;;28.20;53.60;;;;;;6202053;28;20061;-82
2023/05/14 09:28:30;;;;;;;5.10;3.28;;;28.20;53.10;;;;;;6201112;28;20056;-81
2023/05/14 09:31:33;;;;;;;3.20;2.90;;;28.40;53.90;;;;;;6203480;28;20050;-80
2023/05/14 09:34:36;;;;;;;3.58;3.28;;;28.70;53.60;;;;;;6196795;28;20049;-81
2023/05/14 09:37:41;;;;;;;5.45;3.20;;;29.10;53.10;;;;;;6205448;28;20132;-81
2023/05/14 09:40:43;;;;;;;3.28;2.97;;;29.20;52.30;;;;;;6198670;28;20424;-82
2023/05/14 09:43:46;;;;;;;5.00;3.00;;;29.10;52.50;;;;;;6197158;28;20034;-82
2023/05/14 09:46:48;;;;;;;2.90;2.60;;;29.40;51.90;;;;;;6199222;28;20042;-80
2023/05/14 09:49:50;;;;;;;3.65;3.28;;;29.60;51.30;;;;;;6199747;28;20101;-82
2023/05/14 09:52:55;;;;;;;2.90;2.70;;;29.70;50.30;;;;;;6198711;28;20045;-82
2023/05/14 09:55:56;;;;;;;3.67;3.40;;;29.80;50.30;;;;;;6201062;28;20056;-81
2023/05/14 09:59:00;;;;;;;2.95;2.75;;;29.90;50.10;;;;;;6197761;28;20054;-83
2023/05/14 10:02:03;;;;;;;3.17;2.80;;;30.20;49.40;;;;;;6204579;28;20066;-82
2023/05/14 10:05:06;;;;;;;3.60;3.30;;;30.00;49.80;;;;;;6199335;28;20046;-82
2023/05/14 10:08:13;;;;;;;4.00;2.65;;;30.00;49.30;;;;;;6199089;28;20046;-81
2023/05/14 10:11:21;;;;;;;3.53;2.97;;;29.90;48.80;;;;;;6200739;28;20050;-81
2023/05/14 10:14:29;;;;;;;3.58;3.28;;;29.30;49.30;;;;;;6198995;28;20302;-83
2023/05/14 10:17:34;;;;;;;4.10;3.78;;;28.60;50.50;;;;;;6204337;28;20117;-82
2023/05/14 10:20:37;;;;;;;3.97;3.63;;;27.90;51.50;;;;;;6206641;28;20058;-83
2023/05/14 10:23:39;;;;;;;3.90;3.17;;;27.20;52.40;;;;;;6200342;28;20065;-81
2023/05/14 10:26:41;;;;;;;4.30;3.33;;;26.70;53.20;;;;;;6200528;28;20050;-82
2023/05/14 10:29:53;;;;;;;5.20;4.60;;;26.20;54.10;;;;;;6190726;28;20061;-83
2023/05/14 10:33:08;;;;;;;5.63;4.20;;;25.90;54.90;;;;;;6190414;28;20049;-80
2023/05/14 10:36:10;;;;;;;4.63;3.33;;;25.60;55.60;;;;;;6190722;28;20042;-81
2023/05/14 10:39:12;;;;;;;3.92;3.50;;;25.30;56.00;;;;;;6189751;28;20087;-82
2023/05/14 10:42:18;;;;;;;5.30;3.50;;;25.20;56.60;;;;;;6192458;28;20522;-80
2023/05/14 10:45:23;;;;;;;4.55;3.70;;;25.00;56.40;;;;;;6189814;28;20500;-81
2023/05/14 10:48:25;;;;;;;3.95;3.60;;;25.30;57.60;;;;;;6192611;28;20543;-81
2023/05/14 10:51:27;;;;;;;3.63;3.33;;;26.00;56.40;;;;;;6192934;28;20057;-82
2023/05/14 10:54:29;;;;;;;3.17;2.97;;;26.70;55.60;;;;;;6193267;28;20047;-83
2023/05/14 10:57:32;;;;;;;4.38;3.13;;;27.30;54.50;;;;;;6194816;28;20070;-81
2023/05/14 11:00:35;;;;;;;3.90;3.42;;;27.70;54.00;;;;;;6191692;28;20047;-82
2023/05/14 11:03:42;;;;;;;3.60;3.30;;;28.00;53.50;;;;;;6194736;28;20049;-81
2023/05/14 11:06:44;;;;;;;2.80;2.60;;;27.70;52.80;;;;;;6198174;28;20042;-81
2023/05/14 11:09:47;;;;;;;5.05;4.28;;;27.30;53.60;;;;;;6198231;28;20373;-81
2023/05/14 11:12:50;;;;;;;3.95;3.63;;;26.80;53.80;;;;;;6196494;28;20046;-81
2023/05/14 11:15:53;;;;;;;3.78;3.47;;;26.20;54.10;;;;;;6197989;28;20061;-82
2023/05/14 11:19:02;;;;;;;5.32;3.92;;;25.40;54.70;;;;;;6195906;28;20053;-80
2023/05/14 11:22:03;;;;;;;5.70;3.95;;;24.90;55.50;;;;;;6195600;28;20042;-81
2023/05/14 11:25:07;;;;;;;6.50;3.85;;;24.60;56.10;;;;;;6195260;28;20050;-80
2023/05/14 11:28:09;;;;;;;7.20;6.13;;;24.60;56.70;;;;;;6199141;28;20436;-81
2023/05/14 11:31:12;;;;;;;5.22;4.75;;;24.50;57.10;;;;;;6198353;28;20061;-83
2023/05/14 11:34:13;;;;;;;7.30;4.28;;;24.40;57.50;;;;;;6199284;28;20039;-81
2023/05/14 11:37:16;;;;;;;5.88;5.00;;;24.30;57.70;;;;;;6200723;28;20429;-80
2023/05/14 11:40:18;;;;;;;4.03;3.63;;;24.30;58.10;;;;;;6197341;28;20046;-81
2023/05/14 11:43:22;;;;;;;4.63;4.18;;;24.40;58.10;;;;;;6198189;28;20047;-81
2023/05/14 11:46:26;;;;;;;4.35;3.95;;;24.50;58.40;;;;;;6199839;28;20061;-80
2023/05/14 11:49:28;;;;;;;4.88;3.75;;;24.50;57.60;;;;;;6201440;28;20047;-81
2023/05/14 11:52:30;;;;;;;4.57;3.78;;;24.30;57.70;;;;;;6201031;28;20588;-81
2023/05/14 11:55:34;;;;;;;10.27;4.32;;;24.40;57.80;;;;;;6196925;28;20398;-80
2023/05/14 11:58:36;;;;;;;4.88;4.38;;;24.50;58.20;;;;;;6200001;28;20050;-80
2023/05/14 12:01:39;;;;;;;6.55;3.88;;;24.90;58.20;;;;;;6198975;28;20054;-82
2023/05/14 12:04:42;;;;;;;5.63;3.92;;;25.30;57.70;;;;;;6202224;28;20049;-80
2023/05/14 12:07:45;;;;;;;5.05;4.55;;;25.40;57.00;;;;;;6217378;28;20384;-80
2023/05/14 12:10:47;;;;;;;3.90;3.53;;;25.50;56.60;;;;;;6204461;28;20042;-80
2023/05/14 12:13:48;;;;;;;4.10;3.70;;;25.70;56.10;;;;;;6205332;28;20038;-81
2023/05/14 12:16:51;;;;;;;4.72;3.35;;;26.00;56.10;;;;;;6203760;28;20054;-82
2023/05/14 12:19:55;;;;;;;6.10;3.70;;;26.00;55.70;;;;;;6200638;28;20042;-81
2023/05/14 12:22:56;;;;;;;3.35;3.05;;;26.50;55.60;;;;;;6203318;28;20432;-80
2023/05/14 12:26:02;;;;;;;3.30;3.00;;;26.90;55.10;;;;;;6200456;28;20441;-82
2023/05/14 12:29:05;;;;;;;3.58;3.28;;;27.40;53.70;;;;;;6202478;28;20042;-81
2023/05/14 12:32:10;;;;;;;5.68;3.95;;;27.50;53.80;;;;;;6200087;28;20051;-80
2023/05/14 12:35:11;;;;;;;4.50;4.10;;;27.70;53.30;;;;;;6205971;28;20072;-81
2023/05/14 12:38:13;;;;;;;3.50;3.20;;;27.90;52.80;;;;;;6208316;28;20046;-81
2023/05/14 12:41:16;;;;;;;6.07;3.75;;;28.10;52.70;;;;;;6206151;28;20049;-81
2023/05/14 12:44:18;;;;;;;3.50;2.70;;;28.20;52.20;;;;;;6201701;28;20050;-80
2023/05/14 12:47:21;;;;;;;4.93;3.47;;;28.20;52.00;;;;;;6210670;28;20046;-81
2023/05/14 12:50:23;;;;;;;4.70;3.30;;;28.10;51.90;;;;;;6207728;28;20047;-81
2023/05/14 12:53:25;;;;;;;4.32;3.10;;;28.10;51.70;;;;;;6203178;28;20046;-81
2023/05/14 12:56:27;;;;;;;2.95;2.65;;;28.10;51.60;;;;;;6203357;28;20056;-81
2023/05/14 12:59:28;;;;;;;4.20;3.45;;;28.40;51.60;;;;;;6197986;28;20105;-81
2023/05/14 13:02:31;;;;;;;3.33;2.90;;;28.70;51.70;;;;;;6194236;28;20051;-81
2023/05/14 13:05:33;;;;;;;6.85;3.65;;;29.10;51.30;;;;;;6193917;28;20046;-80
2023/05/14 13:08:35;;;;;;;3.53;3.22;;;29.40;50.70;;;;;;6198893;28;20053;-81
2023/05/14 13:11:37;;;;;;;3.60;3.30;;;29.50;50.50;;;;;;6193948;28;20046;-81
2023/05/14 13:14:39;;;;;;;3.72;3.42;;;29.40;49.80;;;;;;6194420;28;20084;-80
2023/05/14 13:17:42;;;;;;;3.40;2.88;;;29.10;49.90;;;;;;6205519;28;20065;-82
2023/05/14 13:20:44;;;;;;;5.53;3.42;;;29.00;49.40;;;;;;6201782;28;20497;-83
2023/05/14 13:23:46;;;;;;;3.50;3.20;;;28.70;49.80;;;;;;6197855;28;20471;-80
2023/05/14 13:26:48;;;;;;;3.63;3.33;;;28.60;49.80;;;;;;6198576;28;20049;-80
2023/05/14 13:29:49;;;;;;;6.05;3.38;;;28.40;49.40;;;;;;6202122;28;20049;-81
2023/05/14 13:32:52;;;;;;;7.15;5.90;;;28.60;49.80;;;;;;6200831;28;20054;-81
2023/05/14 13:35:54;;;;;;;17.98;11.32;;;28.80;49.40;;;;;;6202936;28;20058;-80
2023/05/14 13:38:56;;;;;;;3.83;3.47;;;29.00;49.20;;;;;;6203746;28;20061;-81
2023/05/14 13:41:58;;;;;;;4.18;3.78;;;29.00;49.70;;;;;;6202241;28;20049;-81
2023/05/14 13:45:00;;;;;;;4.00;3.60;;;29.30;49.40;;;;;;6195348;28;20050;-80
2023/05/14 13:48:03;;;;;;;4.07;3.05;;;29.40;49.10;;;;;;6196584;28;20046;-80
2023/05/14 13:51:04;;;;;;;3.88;3.25;;;29.60;48.80;;;;;;6196351;28;20061;-80
2023/05/14 13:54:06;;;;;;;7.20;3.95;;;29.50;48.50;;;;;;6199192;28;22490;-81
2023/05/14 13:57:08;;;;;;;3.40;3.10;;;28.70;49.40;;;;;;6197607;28;20536;-80
2023/05/14 14:00:10;;;;;;;3.20;2.90;;;28.00;49.00;;;;;;6200492;28;20058;-80
2023/05/14 14:03:13;;;;;;;4.30;3.67;;;27.50;50.00;;;;;;6201298;28;20057;-80
2023/05/14 14:06:15;;;;;;;3.90;3.53;;;27.00;50.20;;;;;;6200764;28;20054;-81
2023/05/14 14:09:17;;;;;;;4.40;3.40;;;26.60;50.70;;;;;;6210192;28;20058;-81
2023/05/14 14:12:18;;;;;;;5.55;3.10;;;26.30;51.50;;;;;;6202782;28;20113;-82
2023/05/14 14:15:20;;;;;;;4.20;3.80;;;26.60;51.80;;;;;;6199047;28;20057;-82
2023/05/14 14:18:23;;;;;;;3.45;3.15;;;26.70;51.20;;;;;;6203565;28;20050;-81
2023/05/14 14:21:25;;;;;;;3.92;3.13;;;26.90;51.40;;;;;;6207671;28;20428;-82
2023/05/14 14:24:26;;;;;;;3.78;3.40;;;27.20;50.90;;;;;;6195502;28;20057;-81
2023/05/14 14:27:29;;;;;;;2.70;2.47;;;27.20;50.30;;;;;;6202816;28;20080;-81
2023/05/14 14:30:33;;;;;;;7.15;3.85;;;27.20;50.00;;;;;;6200005;28;20047;-81
2023/05/14 14:33:36;;;;;;;3.13;2.83;;;27.30;50.00;;;;;;6203392;28;20074;-81
2023/05/14 14:36:38;;;;;;;3.95;3.28;;;27.30;50.50;;;;;;6201987;28;20408;-81
2023/05/14 14:39:40;;;;;;;3.65;3.35;;;27.60;50.80;;;;;;6203308;28;20520;-81
2023/05/14 14:42:42;;;;;;;4.18;3.78;;;28.00;50.90;;;;;;6202279;28;20058;-81
2023/05/14 14:45:45;;;;;;;2.40;2.20;;;28.40;49.90;;;;;;6203613;28;20078;-81
2023/05/14 14:48:48;;;;;;;2.97;2.78;;;28.70;49.60;;;;;;6205305;28;20046;-81
2023/05/14 14:51:49;;;;;;;2.90;2.70;;;29.00;48.90;;;;;;6203538;28;20057;-80
2023/05/14 14:54:51;;;;;;;3.15;2.78;;;29.20;48.60;;;;;;6203577;28;20042;-83
2023/05/14 14:57:53;;;;;;;3.95;3.15;;;29.40;48.20;;;;;;6200904;28;20065;-81
2023/05/14 15:00:57;;;;;;;3.30;3.08;;;29.40;48.20;;;;;;6203365;28;20047;-82
2023/05/14 15:04:00;;;;;;;4.43;3.10;;;29.20;48.40;;;;;;6199059;28;20619;-82
2023/05/14 15:07:02;;;;;;;3.78;2.90;;;28.70;48.60;;;;;;6200455;28;20065;-81
2023/05/14 15:10:05;;;;;;;3.42;3.13;;;27.80;49.30;;;;;;6201323;28;20065;-82
2023/05/14 15:13:08;;;;;;;4.38;3.28;;;27.00;50.00;;;;;;6200888;28;20057;-81
2023/05/14 15:16:11;;;;;;;5.55;3.30;;;26.30;50.90;;;;;;6200258;28;20039;-80
2023/05/14 15:19:14;;;;;;;3.30;3.00;;;25.70;51.80;;;;;;6211892;28;20065;-81
2023/05/14 15:22:16;;;;;;;5.07;3.42;;;24.90;52.80;;;;;;6214138;28;20500;-81
2023/05/14 15:25:18;;;;;;;6.93;4.88;;;24.40;53.90;;;;;;6204207;28;20078;-81
2023/05/14 15:28:19;;;;;;;3.05;2.85;;;24.30;54.50;;;;;;6201052;28;20269;-81
2023/05/14 15:31:21;;;;;;;3.55;3.25;;;23.90;54.30;;;;;;6197607;28;20518;-82
2023/05/14 15:34:25;;;;;;;4.35;3.95;;;23.50;55.00;;;;;;6202323;28;20046;-82
2023/05/14 15:37:26;;;;;;;4.53;3.63;;;23.20;55.70;;;;;;6200010;28;20060;-82
2023/05/14 15:40:28;;;;;;;4.13;2.95;;;22.90;56.40;;;;;;6192915;28;20062;-81
2023/05/14 15:43:30;;;;;;;4.70;3.47;;;23.00;57.30;;;;;;6194064;28;20284;-81
2023/05/14 15:46:32;;;;;;;3.58;3.22;;;23.40;57.30;;;;;;6195160;28;20053;-82
2023/05/14 15:49:35;;;;;;;3.83;3.53;;;23.80;56.90;;;;;;6194323;28;20101;-82